createdAt,value
2022-09-23T00:01:20.267Z,66.19
2022-09-23T00:04:03.815Z,66.19
2022-09-23T00:06:41.196Z,66.31
2022-09-23T00:09:14.328Z,66.19
2022-09-23T00:11:50.362Z,66.23
2022-09-23T00:14:25.310Z,66.33
2022-09-23T00:16:58.875Z,66.17
2022-09-23T00:19:35.568Z,66.15
2022-09-23T00:22:20.301Z,66.15
2022-09-23T00:24:54.070Z,66.26
2022-09-23T00:27:27.634Z,66.38
2022-09-23T00:30:14.012Z,66.42
2022-09-23T00:32:47.082Z,66.32
2022-09-23T00:35:20.772Z,66.47
2022-09-23T00:37:54.605Z,66.39
2022-09-23T00:40:28.127Z,66.26
2022-09-23T00:43:05.187Z,66.27
2022-09-23T00:45:41.063Z,66.22
2022-09-23T00:48:24.253Z,66.39
2022-09-23T00:51:22.327Z,66.36
2022-09-23T00:53:56.304Z,66.42
2022-09-23T00:56:29.468Z,66.31
2022-09-23T00:59:24.618Z,66.28
2022-09-23T01:02:14.117Z,66.20
2022-09-23T01:04:47.500Z,66.23
2022-09-23T01:07:23.823Z,66.36
2022-09-23T01:09:58.204Z,66.39
2022-09-23T01:13:10.019Z,66.36
2022-09-23T01:15:51.394Z,66.27
2022-09-23T01:18:27.427Z,66.30
2022-09-23T01:21:17.005Z,66.40
2022-09-23T01:24:27.253Z,66.60
2022-09-23T01:27:16.500Z,66.33
2022-09-23T01:30:19.287Z,66.33
2022-09-23T01:33:11.602Z,66.27
2022-09-23T01:35:57.671Z,66.33
2022-09-23T01:38:41.233Z,66.44
2022-09-23T01:41:31.703Z,66.50
2022-09-23T01:44:10.011Z,66.65
2022-09-23T01:46:54.378Z,66.68
2022-09-23T01:49:46.653Z,66.60
2022-09-23T01:52:47.537Z,66.77
2022-09-23T01:55:34.094Z,66.65
2022-09-23T01:58:25.602Z,66.88
2022-09-23T02:01:02.929Z,66.86
2022-09-23T02:03:40.446Z,67.06
2022-09-23T02:06:17.644Z,66.98
2022-09-23T02:08:56.845Z,66.96
2022-09-23T02:11:30.801Z,66.93
2022-09-23T02:14:08.628Z,66.89
2022-09-23T02:16:47.726Z,66.74
2022-09-23T02:19:34.076Z,66.72
2022-09-23T02:22:10.970Z,66.65
2022-09-23T02:25:05.067Z,66.76
2022-09-23T02:28:05.602Z,66.93
2022-09-23T02:30:49.364Z,66.95
2022-09-23T02:33:34.446Z,66.99
2022-09-23T02:36:32.703Z,66.95
2022-09-23T02:39:37.465Z,67.04
2022-09-23T02:42:15.861Z,66.91
2022-09-23T02:45:00.380Z,66.92
2022-09-23T02:47:37.261Z,66.96
2022-09-23T02:50:20.938Z,66.85
2022-09-23T02:52:57.411Z,66.83
2022-09-23T02:55:44.140Z,66.77
2022-09-23T02:58:19.798Z,66.99
2022-09-23T03:01:22.586Z,66.82
2022-09-23T03:04:07.665Z,66.82
2022-09-23T03:06:49.887Z,66.83
2022-09-23T03:09:28.294Z,66.93
2022-09-23T03:12:18.784Z,66.88
2022-09-23T03:14:59.054Z,66.96
2022-09-23T03:17:59.337Z,67.00
2022-09-23T03:20:38.004Z,67.04
2022-09-23T03:23:10.511Z,67.12
2022-09-23T03:25:47.585Z,67.03
2022-09-23T03:28:23.575Z,67.24
2022-09-23T03:31:01.417Z,67.25
2022-09-23T03:33:35.855Z,67.38
2022-09-23T03:36:31.808Z,67.43
2022-09-23T03:39:12.336Z,67.32
2022-09-23T03:41:51.175Z,67.38
2022-09-23T03:44:40.092Z,67.41
2022-09-23T03:47:16.966Z,67.32
2022-09-23T03:49:51.922Z,67.28
2022-09-23T03:52:27.145Z,67.33
2022-09-23T03:55:04.196Z,67.46
2022-09-23T03:57:57.371Z,67.71
2022-09-23T04:00:30.780Z,67.57
2022-09-23T04:03:11.553Z,67.66
2022-09-23T04:05:48.807Z,67.68
2022-09-23T04:08:30.314Z,67.75
2022-09-23T04:11:07.541Z,67.76
2022-09-23T04:13:44.220Z,67.71
2022-09-23T04:16:37.637Z,67.71
2022-09-23T04:19:13.049Z,67.76
2022-09-23T04:22:08.391Z,67.86
2022-09-23T04:24:44.718Z,67.99
2022-09-23T04:27:17.728Z,67.97
2022-09-23T04:29:54.493Z,68.09
2022-09-23T04:32:28.065Z,68.14
2022-09-23T04:35:06.535Z,68.02
2022-09-23T04:37:40.071Z,67.90
2022-09-23T04:40:14.548Z,68.02
2022-09-23T04:42:48.292Z,67.86
2022-09-23T04:45:21.860Z,67.91
2022-09-23T04:47:56.316Z,68.05
2022-09-23T04:50:34.221Z,68.07
2022-09-23T04:53:08.434Z,68.03
2022-09-23T04:55:42.814Z,68.07
2022-09-23T04:58:16.293Z,68.01
2022-09-23T05:00:49.653Z,68.10
2022-09-23T05:03:24.305Z,68.09
2022-09-23T05:06:02.347Z,68.08
2022-09-23T05:08:35.682Z,68.07
2022-09-23T05:11:18.971Z,68.15
2022-09-23T05:14:02.754Z,68.12
2022-09-23T05:16:36.306Z,68.10
2022-09-23T05:19:09.746Z,68.24
2022-09-23T05:21:46.244Z,68.29
2022-09-23T05:24:26.213Z,68.09
2022-09-23T05:27:02.977Z,68.08
2022-09-23T05:29:46.283Z,67.97
2022-09-23T05:32:23.290Z,68.00
2022-09-23T05:35:08.861Z,68.00
2022-09-23T05:37:42.280Z,68.22
2022-09-23T05:40:18.486Z,68.36
2022-09-23T05:42:54.805Z,68.38
2022-09-23T05:45:48.476Z,68.28
2022-09-23T05:48:21.957Z,68.17
2022-09-23T05:50:56.137Z,68.16
2022-09-23T05:53:45.290Z,68.01
2022-09-23T05:56:30.445Z,67.80
2022-09-23T05:59:13.752Z,67.84
2022-09-23T06:01:47.405Z,68.14
2022-09-23T06:04:31.402Z,67.91
2022-09-23T06:07:04.829Z,67.69
2022-09-23T06:09:38.089Z,67.51
2022-09-23T06:12:11.684Z,67.69
2022-09-23T06:15:05.377Z,67.89
2022-09-23T06:17:38.554Z,67.85
2022-09-23T06:20:22.135Z,68.21
2022-09-23T06:22:56.594Z,69.77
2022-09-23T06:25:39.903Z,69.45
2022-09-23T06:28:16.389Z,71.45
2022-09-23T06:30:50.858Z,66.50
2022-09-23T06:33:36.319Z,62.82
2022-09-23T06:36:11.507Z,61.66
2022-09-23T06:38:45.657Z,61.19
2022-09-23T06:41:22.935Z,60.00
2022-09-23T06:43:56.699Z,60.25
2022-09-23T06:46:31.592Z,60.11
2022-09-23T06:49:17.925Z,60.67
2022-09-23T06:52:11.324Z,58.20
2022-09-23T06:54:44.401Z,54.92
2022-09-23T06:57:17.670Z,52.41
2022-09-23T06:59:51.381Z,51.41
2022-09-23T07:02:24.759Z,50.50
2022-09-23T07:04:57.986Z,50.23
2022-09-23T07:07:33.687Z,50.92
2022-09-23T07:10:08.131Z,51.76
2022-09-23T07:12:43.575Z,50.87
2022-09-23T07:15:36.947Z,51.24
2022-09-23T07:18:19.515Z,50.49
2022-09-23T07:20:59.332Z,49.32
2022-09-23T07:23:35.441Z,47.86
2022-09-23T07:26:09.374Z,47.34
2022-09-23T07:28:46.197Z,48.02
2022-09-23T07:31:34.242Z,48.03
2022-09-23T07:34:12.001Z,46.34
2022-09-23T07:36:45.602Z,44.44
2022-09-23T07:39:19.181Z,44.88
2022-09-23T07:41:55.674Z,44.70
2022-09-23T07:44:48.124Z,42.10
2022-09-23T07:47:24.842Z,40.91
2022-09-23T07:50:12.382Z,40.37
2022-09-23T07:52:49.463Z,38.92
2022-09-23T07:55:22.767Z,37.51
2022-09-23T07:57:56.515Z,37.13
2022-09-23T08:00:33.511Z,37.59
2022-09-23T08:03:06.836Z,38.56
2022-09-23T08:05:40.435Z,39.38
2022-09-23T08:08:27.544Z,40.18
2022-09-23T08:11:21.449Z,41.23
2022-09-23T08:13:55.184Z,41.85
2022-09-23T08:16:28.680Z,42.10
2022-09-23T08:19:02.195Z,43.06
2022-09-23T08:21:40.688Z,43.91
2022-09-23T08:24:34.472Z,44.54
2022-09-23T08:27:28.494Z,44.99
2022-09-23T08:30:21.769Z,45.46
2022-09-23T08:32:58.375Z,46.17
2022-09-23T08:35:41.895Z,46.27
2022-09-23T08:38:35.308Z,46.63
2022-09-23T08:41:36.691Z,47.21
2022-09-23T08:44:15.676Z,47.51
2022-09-23T08:46:57.445Z,48.19
2022-09-23T08:49:38.985Z,48.58
2022-09-23T08:52:19.828Z,48.81
2022-09-23T08:54:55.460Z,48.95
2022-09-23T08:57:40.730Z,49.10
2022-09-23T09:00:22.121Z,49.05
2022-09-23T09:02:55.699Z,49.51
2022-09-23T09:05:31.280Z,49.50
2022-09-23T09:08:05.326Z,49.55
2022-09-23T09:10:47.628Z,49.94
2022-09-23T09:13:30.632Z,49.73
2022-09-23T09:16:27.271Z,49.68
2022-09-23T09:19:21.038Z,49.85
2022-09-23T09:22:09.612Z,49.88
2022-09-23T09:24:50.571Z,49.98
2022-09-23T09:27:27.211Z,50.14
2022-09-23T09:30:03.340Z,50.52
2022-09-23T09:33:00.799Z,50.80
2022-09-23T09:35:42.386Z,51.00
2022-09-23T09:38:15.653Z,50.64
2022-09-23T09:40:51.959Z,50.67
2022-09-23T09:43:25.859Z,50.61
2022-09-23T09:46:15.403Z,50.29
2022-09-23T09:48:56.622Z,49.51
2022-09-23T09:51:31.081Z,48.75
2022-09-23T09:54:25.038Z,48.20
2022-09-23T10:45:04.957Z,46.54
2022-09-23T10:48:04.184Z,45.91
2022-09-23T10:50:44.570Z,45.46
2022-09-23T10:53:25.923Z,45.27
2022-09-23T10:56:25.869Z,45.29
2022-09-23T10:59:15.581Z,45.12
2022-09-23T11:01:59.531Z,44.97
2022-09-23T11:04:55.068Z,45.58
2022-09-23T11:07:38.320Z,45.84
2022-09-23T11:10:49.369Z,44.16
2022-09-23T11:13:37.553Z,42.90
2022-09-23T11:16:25.304Z,42.63
2022-09-23T11:19:24.014Z,42.85
2022-09-23T11:22:17.447Z,43.44
2022-09-23T11:25:26.860Z,43.48
2022-09-23T11:28:26.594Z,43.45
2022-09-23T11:31:10.461Z,42.59
2022-09-23T11:34:03.221Z,43.01
2022-09-23T11:36:43.012Z,43.29
2022-09-23T11:39:19.943Z,43.23
2022-09-23T11:41:57.815Z,43.31
2022-09-23T11:44:34.177Z,43.06
2022-09-23T11:47:11.139Z,43.04
2022-09-23T11:49:51.945Z,42.89
2022-09-23T11:52:32.042Z,42.97
2022-09-23T11:55:22.348Z,43.17
2022-09-23T11:58:02.087Z,43.30
2022-09-23T12:00:40.790Z,43.25
2022-09-23T12:03:34.461Z,42.98
2022-09-23T12:06:23.339Z,42.72
2022-09-23T12:09:02.996Z,41.92
2022-09-23T12:11:44.416Z,41.83
2022-09-23T12:14:23.426Z,41.20
2022-09-23T12:17:17.166Z,41.24
2022-09-23T12:20:13.717Z,41.38
2022-09-23T12:23:06.180Z,41.61
2022-09-23T12:25:47.896Z,41.85
2022-09-23T12:28:27.042Z,42.33
2022-09-23T12:31:03.913Z,42.48
2022-09-23T12:33:39.069Z,42.63
2022-09-23T12:36:14.665Z,42.70
2022-09-23T12:38:54.056Z,42.82
2022-09-23T12:41:37.889Z,42.87
2022-09-23T12:44:37.031Z,43.12
2022-09-23T12:47:39.227Z,43.89
2022-09-23T12:50:51.127Z,44.04
2022-09-23T12:54:17.703Z,43.38
2022-09-23T12:57:13.907Z,42.93
2022-09-23T13:00:24.189Z,43.17
2022-09-23T13:03:18.529Z,43.12
2022-09-23T13:06:16.350Z,42.34
2022-09-23T13:08:51.140Z,42.09
2022-09-23T13:11:28.280Z,42.20
2022-09-23T13:14:07.364Z,42.29
2022-09-23T13:16:46.339Z,42.43
2022-09-23T13:19:47.728Z,42.58
2022-09-23T13:23:01.595Z,42.98
2022-09-23T13:25:42.058Z,43.07
2022-09-23T13:28:28.618Z,43.16
2022-09-23T13:31:07.287Z,43.41
2022-09-23T13:33:46.937Z,43.53
2022-09-23T13:36:22.202Z,43.60
2022-09-23T13:39:15.380Z,43.70
2022-09-23T13:41:48.957Z,43.89
2022-09-23T13:44:24.087Z,43.84
2022-09-23T13:47:00.435Z,44.11
2022-09-23T13:49:37.897Z,44.22
2022-09-23T13:52:25.813Z,44.54
2022-09-23T13:54:59.580Z,44.72
2022-09-23T13:57:35.418Z,44.82
2022-09-23T14:00:22.622Z,44.98
2022-09-23T14:02:56.204Z,45.06
2022-09-23T14:05:34.178Z,45.18
2022-09-23T14:08:09.587Z,45.28
2022-09-23T14:10:46.429Z,45.21
2022-09-23T14:13:26.687Z,45.27
2022-09-23T14:16:04.622Z,45.48
2022-09-23T14:18:42.180Z,45.54
2022-09-23T14:21:35.487Z,45.78
2022-09-23T14:24:16.388Z,45.97
2022-09-23T14:26:51.981Z,45.96
2022-09-23T14:29:30.060Z,46.17
2022-09-23T14:32:07.044Z,46.39
2022-09-23T14:34:50.829Z,46.50
2022-09-23T14:37:46.993Z,46.47
2022-09-23T14:40:23.130Z,46.57
2022-09-23T14:43:05.496Z,46.34
2022-09-23T14:45:41.638Z,46.32
2022-09-23T14:48:19.129Z,46.13
2022-09-23T14:50:56.332Z,46.03
2022-09-23T14:53:47.341Z,46.22
2022-09-23T14:56:25.324Z,46.12
2022-09-23T14:59:01.145Z,46.02
2022-09-23T15:01:41.812Z,45.82
2022-09-23T15:04:18.996Z,45.65
2022-09-23T15:06:59.327Z,45.55
2022-09-23T15:09:37.310Z,45.55
2022-09-23T15:12:16.396Z,45.61
2022-09-23T15:14:55.116Z,45.63
2022-09-23T15:17:32.885Z,45.95
2022-09-23T15:20:10.728Z,45.97
2022-09-23T15:22:48.970Z,46.02
2022-09-23T15:25:28.578Z,45.98
2022-09-23T15:28:18.490Z,45.93
2022-09-23T15:30:53.776Z,46.02
2022-09-23T15:33:28.563Z,46.36
2022-09-23T15:36:21.158Z,46.49
2022-09-23T15:39:16.558Z,46.29
2022-09-23T15:41:50.218Z,46.46
2022-09-23T15:44:30.071Z,46.77
2022-09-23T15:47:24.027Z,46.99
2022-09-23T15:50:09.344Z,47.23
2022-09-23T15:52:45.510Z,47.41
2022-09-23T15:55:23.270Z,47.65
2022-09-23T15:57:57.064Z,47.86
2022-09-23T16:00:30.422Z,47.94
2022-09-23T16:03:04.595Z,48.28
2022-09-23T16:05:40.783Z,48.41
2022-09-23T16:08:16.453Z,48.61
2022-09-23T16:10:50.149Z,48.70
2022-09-23T16:13:31.935Z,48.99
2022-09-23T16:16:08.463Z,49.13
2022-09-23T16:18:44.169Z,49.40
2022-09-23T16:21:20.067Z,49.62
2022-09-23T16:23:54.869Z,49.73
2022-09-23T16:26:30.704Z,49.91
2022-09-23T16:29:04.181Z,50.04
2022-09-23T16:31:40.760Z,50.26
2022-09-23T16:34:14.387Z,50.37
2022-09-23T16:36:48.394Z,50.62
2022-09-23T16:39:23.184Z,50.75
2022-09-23T16:41:56.823Z,51.03
2022-09-23T16:44:32.289Z,51.11
2022-09-23T16:47:05.939Z,51.20
2022-09-23T16:49:39.394Z,51.38
2022-09-23T16:52:17.189Z,51.41
2022-09-23T16:54:49.968Z,51.63
2022-09-23T16:57:35.465Z,51.62
2022-09-23T17:00:31.295Z,51.91
2022-09-23T17:03:24.421Z,52.18
2022-09-23T17:06:07.227Z,52.29
2022-09-23T17:08:43.488Z,52.53
2022-09-23T17:11:17.594Z,52.68
2022-09-23T17:13:51.965Z,52.81
2022-09-23T17:16:28.441Z,52.95
2022-09-23T17:19:07.590Z,53.20
2022-09-23T17:21:45.132Z,53.35
2022-09-23T17:24:19.252Z,53.49
2022-09-23T17:26:53.421Z,53.61
2022-09-23T17:29:29.427Z,53.86
2022-09-23T17:32:04.597Z,54.14
2022-09-23T17:34:38.160Z,54.26
2022-09-23T17:37:11.461Z,54.28
2022-09-23T17:39:48.498Z,54.54
2022-09-23T17:42:21.804Z,54.69
2022-09-23T17:44:56.877Z,54.78
2022-09-23T17:47:33.381Z,54.94
2022-09-23T17:50:08.578Z,54.99
2022-09-23T17:52:42.152Z,55.16
2022-09-23T17:55:17.092Z,55.21
2022-09-23T17:57:55.358Z,55.08
2022-09-23T18:00:32.009Z,55.04
2022-09-23T18:03:05.709Z,55.14
2022-09-23T18:05:39.457Z,55.01
2022-09-23T18:08:12.946Z,55.26
2022-09-23T18:10:49.865Z,55.03
2022-09-23T18:13:23.859Z,55.09
2022-09-23T18:15:57.561Z,55.13
2022-09-23T18:18:31.832Z,55.09
2022-09-23T18:21:20.061Z,55.19
2022-09-23T18:23:53.461Z,55.15
2022-09-23T18:26:28.349Z,55.26
2022-09-23T18:29:02.721Z,55.19
2022-09-23T18:31:39.002Z,55.23
2022-09-23T18:34:15.493Z,55.32
2022-09-23T18:36:49.220Z,55.35
2022-09-23T18:39:23.218Z,54.95
2022-09-23T18:41:57.584Z,54.98
2022-09-23T18:44:34.252Z,54.92
2022-09-23T18:47:07.734Z,54.86
2022-09-23T18:50:03.069Z,55.20
2022-09-23T18:52:45.845Z,55.03
2022-09-23T18:55:19.588Z,55.03
2022-09-23T18:57:52.999Z,54.99
2022-09-23T19:00:26.768Z,55.09
2022-09-23T19:03:11.281Z,55.05
2022-09-23T19:05:45.588Z,55.05
2022-09-23T19:08:20.047Z,55.16
2022-09-23T19:11:00.652Z,55.34
2022-09-23T19:13:37.754Z,55.23
2022-09-23T19:16:17.355Z,55.24
2022-09-23T19:18:54.733Z,55.37
2022-09-23T19:21:29.708Z,55.39
2022-09-23T19:24:04.753Z,55.49
2022-09-23T19:26:41.259Z,55.55
2022-09-23T19:29:19.744Z,55.86
2022-09-23T19:31:53.980Z,56.10
2022-09-23T19:34:31.750Z,56.05
2022-09-23T19:37:05.523Z,56.23
2022-09-23T19:39:53.181Z,56.25
2022-09-23T19:42:28.425Z,56.10
2022-09-23T19:45:01.527Z,56.00
2022-09-23T19:47:44.670Z,56.14
2022-09-23T19:50:19.451Z,56.23
2022-09-23T19:52:53.180Z,56.28
2022-09-23T19:55:28.677Z,56.37
2022-09-23T19:58:02.293Z,56.54
2022-09-23T20:00:36.272Z,56.66
2022-09-23T20:03:10.216Z,56.75
2022-09-23T20:05:44.397Z,56.81
2022-09-23T20:08:17.694Z,57.03
2022-09-23T20:10:53.286Z,57.01
2022-09-23T20:13:27.529Z,57.18
2022-09-23T20:16:09.324Z,57.50
2022-09-23T20:18:43.799Z,57.45
2022-09-23T20:21:18.360Z,57.50
2022-09-23T20:23:51.916Z,57.65
2022-09-23T20:26:42.703Z,57.68
2022-09-23T20:29:16.820Z,57.53
2022-09-23T20:31:50.601Z,57.66
2022-09-23T20:34:24.911Z,57.69
2022-09-23T20:36:59.462Z,57.77
2022-09-23T20:39:36.800Z,57.92
2022-09-23T20:42:10.451Z,57.96
2022-09-23T20:44:45.282Z,58.16
2022-09-23T20:47:20.151Z,58.28
2022-09-23T20:49:54.144Z,58.25
2022-09-23T20:52:49.127Z,58.39
2022-09-23T20:55:23.228Z,58.53
2022-09-23T20:57:57.117Z,58.64
2022-09-23T21:00:30.627Z,58.75
2022-09-23T21:03:05.006Z,58.69
2022-09-23T21:05:40.317Z,58.88
2022-09-23T21:08:13.561Z,58.89
2022-09-23T21:10:54.502Z,59.03
2022-09-23T21:13:32.409Z,59.12
2022-09-23T21:16:09.244Z,59.23
2022-09-23T21:18:46.027Z,59.34
2022-09-23T21:21:22.602Z,59.47
2022-09-23T21:24:07.076Z,59.62
2022-09-23T21:26:50.804Z,59.45
2022-09-23T21:29:24.221Z,59.55
2022-09-23T21:31:57.892Z,59.46
2022-09-23T21:34:32.445Z,59.66
2022-09-23T21:37:06.320Z,59.82
2022-09-23T21:39:40.143Z,59.81
2022-09-23T21:42:33.374Z,59.88
2022-09-23T21:45:07.514Z,59.92
2022-09-23T21:47:41.019Z,60.08
2022-09-23T21:50:14.770Z,60.04
2022-09-23T21:52:52.444Z,60.15
2022-09-23T21:55:28.162Z,60.26
2022-09-23T21:58:01.299Z,60.31
2022-09-23T22:00:46.345Z,60.41
2022-09-23T22:03:31.098Z,60.39
2022-09-23T22:06:07.168Z,60.25
2022-09-23T22:08:45.158Z,60.21
2022-09-23T22:11:38.949Z,60.28
2022-09-23T22:14:14.350Z,60.29
2022-09-23T22:16:48.154Z,60.42
2022-09-23T22:19:25.937Z,60.44
2022-09-23T22:21:59.562Z,60.46
2022-09-23T22:24:53.928Z,60.57
2022-09-23T22:27:30.223Z,60.63
2022-09-23T22:30:25.754Z,60.83
2022-09-23T22:33:01.899Z,61.02
2022-09-23T22:35:35.046Z,61.00
2022-09-23T22:38:11.107Z,61.00
2022-09-23T22:40:47.532Z,61.05
2022-09-23T22:43:31.281Z,60.87
2022-09-23T22:46:07.721Z,60.96
2022-09-23T22:48:41.072Z,60.88
2022-09-23T22:51:14.613Z,60.82
2022-09-23T22:53:48.504Z,60.98
2022-09-23T22:56:21.903Z,60.97
2022-09-23T22:58:58.131Z,60.99
2022-09-23T23:01:31.947Z,60.85
2022-09-23T23:04:09.103Z,61.09
2022-09-23T23:06:43.293Z,60.81
2022-09-23T23:09:18.783Z,60.90
2022-09-23T23:11:52.456Z,60.92
2022-09-23T23:14:26.715Z,60.88
2022-09-23T23:17:01.105Z,60.95
2022-09-23T23:19:55.574Z,60.96
2022-09-23T23:22:31.353Z,61.13
2022-09-23T23:25:25.172Z,61.14
2022-09-23T23:27:58.797Z,61.18
2022-09-23T23:30:32.445Z,61.18
2022-09-23T23:33:08.446Z,61.13
2022-09-23T23:35:41.736Z,61.20
2022-09-23T23:38:15.105Z,61.01
2022-09-23T23:40:52.883Z,61.18
2022-09-23T23:43:29.141Z,61.11
2022-09-23T23:46:14.686Z,61.30
2022-09-23T23:48:48.534Z,61.25
2022-09-23T23:51:23.139Z,61.32
2022-09-23T23:53:58.926Z,61.46
2022-09-23T23:56:33.818Z,61.62
2022-09-23T23:59:07.463Z,61.49
